createdAt,value
2023-01-28T00:01:43.138Z,48.17
2023-01-28T00:04:12.090Z,47.72
2023-01-28T00:06:40.689Z,47.89
2023-01-28T00:09:09.319Z,48.05
2023-01-28T00:11:38.055Z,48.53
2023-01-28T00:14:07.711Z,48.37
2023-01-28T00:16:37.655Z,48.85
2023-01-28T00:19:06.175Z,47.92
2023-01-28T00:21:34.732Z,48.63
2023-01-28T00:24:03.455Z,49.08
2023-01-28T00:26:32.041Z,48.71
2023-01-28T00:29:00.577Z,48.95
2023-01-28T00:31:29.507Z,48.59
2023-01-28T00:33:59.456Z,48.36
2023-01-28T00:36:28.909Z,48.58
2023-01-28T00:38:59.688Z,48.86
2023-01-28T00:41:30.102Z,49.09
2023-01-28T00:44:00.415Z,48.86
2023-01-28T00:46:30.103Z,49.38
2023-01-28T00:48:59.973Z,48.58
2023-01-28T00:51:28.559Z,49.15
2023-01-28T00:53:57.156Z,49.05
2023-01-28T00:56:25.748Z,48.74
2023-01-28T00:58:54.578Z,49.12
2023-01-28T01:01:25.186Z,48.71
2023-01-28T01:03:57.882Z,49.21
2023-01-28T01:06:27.895Z,48.91
2023-01-28T01:08:56.385Z,49.06
2023-01-28T01:11:25.107Z,49.03
2023-01-28T01:13:56.964Z,49.29
2023-01-28T01:16:28.343Z,49.06
2023-01-28T01:18:57.958Z,49.78
2023-01-28T01:21:29.734Z,49.08
2023-01-28T01:23:58.443Z,49.77
2023-01-28T01:26:27.578Z,49.54
2023-01-28T01:28:58.947Z,49.62
2023-01-28T01:31:27.551Z,50.08
2023-01-28T01:33:56.143Z,49.94
2023-01-28T01:36:24.693Z,49.67
2023-01-28T01:38:56.572Z,49.29
2023-01-28T01:41:29.087Z,49.40
2023-01-28T01:44:00.241Z,49.40
2023-01-28T01:46:37.641Z,49.47
2023-01-28T01:49:15.109Z,49.06
2023-01-28T01:51:47.016Z,48.81
2023-01-28T01:54:18.813Z,49.30
2023-01-28T01:56:50.272Z,48.80
2023-01-28T01:59:24.106Z,48.81
2023-01-28T02:01:53.758Z,49.10
2023-01-28T02:04:26.589Z,49.74
2023-01-28T02:06:55.354Z,49.87
2023-01-28T02:09:27.737Z,49.71
2023-01-28T02:11:58.193Z,49.48
2023-01-28T02:14:31.675Z,49.84
2023-01-28T02:17:02.091Z,50.02
2023-01-28T02:19:38.305Z,50.13
2023-01-28T02:22:16.696Z,50.38
2023-01-28T02:25:15.962Z,50.26
2023-01-28T02:28:13.519Z,50.12
2023-01-28T02:30:46.063Z,49.84
2023-01-28T02:33:19.690Z,49.55
2023-01-28T02:35:51.302Z,49.98
2023-01-28T02:38:25.305Z,50.01
2023-01-28T02:41:05.908Z,50.31
2023-01-28T02:43:38.436Z,50.36
2023-01-28T02:46:34.822Z,50.75
2023-01-28T02:49:06.811Z,50.49
2023-01-28T02:51:47.898Z,50.67
2023-01-28T02:54:27.485Z,51.26
2023-01-28T02:57:07.491Z,51.75
2023-01-28T02:59:43.361Z,51.62
2023-01-28T03:02:20.926Z,52.47
2023-01-28T03:04:56.025Z,52.35
2023-01-28T03:07:27.671Z,52.69
2023-01-28T03:09:59.166Z,51.99
2023-01-28T03:12:47.526Z,52.13
2023-01-28T03:15:38.405Z,51.57
2023-01-28T03:18:28.645Z,51.81
2023-01-28T03:21:23.405Z,52.33
2023-01-28T03:24:15.443Z,51.39
2023-01-28T03:27:06.645Z,51.80
2023-01-28T03:29:55.243Z,51.59
2023-01-28T03:32:42.989Z,51.85
2023-01-28T03:35:35.141Z,52.32
2023-01-28T03:38:18.941Z,51.96
2023-01-28T03:40:51.895Z,52.46
2023-01-28T03:43:21.352Z,52.05
2023-01-28T03:45:51.625Z,52.03
2023-01-28T03:48:23.464Z,51.62
2023-01-28T03:50:52.866Z,52.18
2023-01-28T03:53:21.901Z,51.75
2023-01-28T03:55:54.120Z,51.81
2023-01-28T03:58:27.355Z,51.53
2023-01-28T04:00:56.388Z,52.22
2023-01-28T04:03:27.218Z,51.73
2023-01-28T04:06:01.202Z,52.07
2023-01-28T04:08:49.280Z,51.92
2023-01-28T04:11:36.360Z,52.27
2023-01-28T04:14:07.203Z,52.15
2023-01-28T04:16:58.907Z,52.87
2023-01-28T04:19:37.426Z,52.52
2023-01-28T04:22:09.086Z,52.59
2023-01-28T04:24:37.847Z,52.18
2023-01-28T04:27:06.629Z,51.80
2023-01-28T04:29:35.234Z,51.77
2023-01-28T04:32:23.563Z,51.80
2023-01-28T04:35:24.199Z,51.61
2023-01-28T04:38:15.606Z,51.64
2023-01-28T04:41:04.450Z,51.99
2023-01-28T04:43:35.500Z,51.95
2023-01-28T04:46:22.563Z,51.31
2023-01-28T04:49:03.687Z,51.32
2023-01-28T04:51:48.708Z,51.80
2023-01-28T04:54:35.048Z,52.07
2023-01-28T04:57:05.575Z,52.30
2023-01-28T04:59:34.255Z,51.47
2023-01-28T05:02:03.661Z,51.65
2023-01-28T05:04:32.415Z,52.06
2023-01-28T05:07:02.563Z,52.10
2023-01-28T05:09:35.517Z,52.51
2023-01-28T05:12:04.388Z,51.98
2023-01-28T05:14:34.716Z,52.38
2023-01-28T05:17:08.436Z,53.03
2023-01-28T05:19:37.211Z,53.26
2023-01-28T05:22:11.186Z,52.88
2023-01-28T05:24:44.069Z,53.80
2023-01-28T05:27:12.709Z,53.98
2023-01-28T05:29:42.170Z,54.51
2023-01-28T05:32:11.039Z,54.73
2023-01-28T05:34:39.712Z,54.72
2023-01-28T05:37:14.220Z,54.85
2023-01-28T05:39:42.925Z,54.83
2023-01-28T05:42:11.519Z,54.69
2023-01-28T05:44:45.734Z,54.76
2023-01-28T05:47:20.296Z,54.69
2023-01-28T05:50:15.661Z,54.48
2023-01-28T05:53:08.976Z,54.56
2023-01-28T05:55:39.246Z,54.54
2023-01-28T05:58:07.807Z,54.25
2023-01-28T06:00:36.985Z,53.93
2023-01-28T06:03:06.687Z,54.20
2023-01-28T06:05:37.211Z,54.21
2023-01-28T06:08:06.816Z,54.24
2023-01-28T06:10:36.782Z,54.19
2023-01-28T06:13:06.042Z,54.13
2023-01-28T06:15:41.568Z,54.27
2023-01-28T06:18:24.660Z,54.40
2023-01-28T06:20:54.105Z,54.71
2023-01-28T06:23:22.598Z,54.83
2023-01-28T06:25:56.559Z,54.83
2023-01-28T06:28:26.766Z,54.74
2023-01-28T06:30:55.531Z,54.83
2023-01-28T06:33:24.507Z,54.96
2023-01-28T06:35:53.077Z,55.15
2023-01-28T06:38:21.781Z,54.91
2023-01-28T06:40:53.482Z,54.61
2023-01-28T06:43:27.851Z,54.86
2023-01-28T06:45:56.901Z,54.80
2023-01-28T06:48:25.755Z,54.91
2023-01-28T06:50:54.706Z,55.14
2023-01-28T06:53:23.595Z,55.41
2023-01-28T06:55:52.789Z,55.38
2023-01-28T06:58:21.305Z,55.49
2023-01-28T07:00:51.185Z,55.27
2023-01-28T07:03:19.727Z,55.14
2023-01-28T07:05:48.933Z,55.59
2023-01-28T07:08:17.392Z,55.26
2023-01-28T07:10:46.172Z,55.13
2023-01-28T07:13:14.579Z,55.68
2023-01-28T07:15:43.467Z,55.87
2023-01-28T07:18:13.369Z,55.24
2023-01-28T07:20:41.926Z,55.59
2023-01-28T07:23:10.451Z,55.43
2023-01-28T07:25:38.996Z,55.26
2023-01-28T07:28:07.778Z,55.15
2023-01-28T07:30:36.244Z,54.91
2023-01-28T07:33:05.968Z,55.16
2023-01-28T07:35:35.915Z,54.82
2023-01-28T07:38:04.513Z,55.30
2023-01-28T07:40:33.068Z,55.52
2023-01-28T07:43:01.597Z,55.75
2023-01-28T07:45:37.980Z,55.89
2023-01-28T07:48:09.408Z,56.30
2023-01-28T07:50:40.339Z,56.01
2023-01-28T07:53:10.907Z,55.95
2023-01-28T07:55:40.289Z,56.02
2023-01-28T07:58:12.197Z,56.02
2023-01-28T08:00:41.004Z,56.34
2023-01-28T08:03:14.125Z,56.74
2023-01-28T08:05:46.805Z,56.70
2023-01-28T08:08:16.732Z,56.54
2023-01-28T08:10:45.657Z,56.42
2023-01-28T08:13:15.776Z,56.49
2023-01-28T08:15:44.558Z,55.70
2023-01-28T08:18:15.070Z,55.77
2023-01-28T08:20:47.443Z,55.43
2023-01-28T08:23:17.406Z,55.06
2023-01-28T08:25:46.467Z,55.44
2023-01-28T08:28:16.301Z,54.59
2023-01-28T08:30:45.064Z,54.47
2023-01-28T08:33:15.093Z,54.54
2023-01-28T08:35:46.672Z,54.82
2023-01-28T08:38:17.859Z,53.76
2023-01-28T08:40:46.590Z,53.72
2023-01-28T08:43:15.039Z,53.68
2023-01-28T08:45:43.778Z,52.96
2023-01-28T08:48:16.215Z,53.12
2023-01-28T08:50:46.908Z,52.62
2023-01-28T08:53:16.984Z,53.46
2023-01-28T08:55:46.955Z,53.52
2023-01-28T08:58:17.075Z,53.42
2023-01-28T09:00:46.659Z,53.15
2023-01-28T09:03:15.072Z,52.79
2023-01-28T09:05:44.005Z,53.71
2023-01-28T09:08:15.548Z,52.78
2023-01-28T09:10:44.580Z,53.57
2023-01-28T09:13:15.364Z,53.46
2023-01-28T09:15:44.218Z,50.61
2023-01-28T09:18:12.816Z,51.74
2023-01-28T09:20:42.330Z,51.92
2023-01-28T09:23:11.588Z,52.13
2023-01-28T09:25:41.584Z,52.22
2023-01-28T09:28:10.401Z,52.15
2023-01-28T09:30:39.979Z,50.91
2023-01-28T09:33:08.863Z,50.85
2023-01-28T09:35:38.074Z,50.99
2023-01-28T09:38:07.167Z,50.07
2023-01-28T09:40:38.955Z,50.84
2023-01-28T09:43:38.574Z,50.17
2023-01-28T09:46:08.737Z,51.54
2023-01-28T09:48:41.897Z,51.68
2023-01-28T09:51:12.636Z,51.74
2023-01-28T09:53:48.996Z,50.43
2023-01-28T09:56:26.959Z,50.49
2023-01-28T09:58:58.317Z,51.44
2023-01-28T10:01:40.687Z,51.39
2023-01-28T10:04:23.396Z,51.42
2023-01-28T10:07:01.486Z,51.06
2023-01-28T10:09:41.486Z,51.95
2023-01-28T10:12:29.175Z,51.52
2023-01-28T10:15:26.252Z,51.40
2023-01-28T10:18:14.679Z,52.37
2023-01-28T10:20:49.211Z,52.72
2023-01-28T10:23:22.612Z,52.53
2023-01-28T10:25:51.373Z,51.97
2023-01-28T10:28:23.279Z,51.50
2023-01-28T10:30:53.614Z,51.69
2023-01-28T10:33:25.090Z,50.87
2023-01-28T10:35:53.791Z,50.70
2023-01-28T10:38:24.747Z,50.94
2023-01-28T10:40:53.526Z,51.09
2023-01-28T10:43:26.321Z,50.73
2023-01-28T10:46:02.591Z,49.25
2023-01-28T10:48:35.207Z,49.68
2023-01-28T10:51:06.570Z,49.46
2023-01-28T10:53:37.136Z,48.73
2023-01-28T10:56:07.730Z,48.11
2023-01-28T10:58:48.213Z,48.85
2023-01-28T11:01:24.719Z,47.42
2023-01-28T11:04:00.336Z,47.93
2023-01-28T11:06:30.618Z,48.32
2023-01-28T11:09:01.243Z,47.76
2023-01-28T11:11:31.033Z,47.83
2023-01-28T11:14:01.425Z,47.81
2023-01-28T11:16:31.504Z,48.00
2023-01-28T11:19:05.216Z,47.72
2023-01-28T11:21:35.769Z,47.75
2023-01-28T11:24:07.146Z,47.58
2023-01-28T11:26:38.717Z,47.89
2023-01-28T11:29:08.126Z,48.32
2023-01-28T11:31:44.694Z,47.26
2023-01-28T11:34:19.254Z,47.58
2023-01-28T11:36:55.277Z,47.07
2023-01-28T11:39:26.233Z,46.97
2023-01-28T11:41:55.389Z,46.98
2023-01-28T11:44:25.596Z,47.33
2023-01-28T11:47:10.660Z,47.36
2023-01-28T11:49:55.321Z,46.58
2023-01-28T11:52:55.342Z,46.63
2023-01-28T11:55:39.237Z,46.92
2023-01-28T11:58:20.395Z,46.96
2023-01-28T12:00:57.241Z,47.13
2023-01-28T12:03:48.380Z,47.27
2023-01-28T12:06:30.056Z,46.91
2023-01-28T12:09:08.000Z,45.68
2023-01-28T12:12:07.355Z,45.76
2023-01-28T12:14:49.379Z,46.45
2023-01-28T12:17:32.729Z,45.61
2023-01-28T12:20:19.689Z,45.30
2023-01-28T12:23:26.749Z,45.99
2023-01-28T12:26:07.947Z,45.33
2023-01-28T12:28:58.138Z,45.32
2023-01-28T12:31:56.767Z,45.51
2023-01-28T12:34:53.792Z,45.76
2023-01-28T12:37:33.531Z,45.63
2023-01-28T12:40:17.941Z,45.73
2023-01-28T12:42:52.405Z,46.12
2023-01-28T12:45:27.230Z,45.63
2023-01-28T12:48:02.452Z,45.76
2023-01-28T12:50:35.059Z,45.85
2023-01-28T12:53:21.761Z,45.24
2023-01-28T12:55:55.593Z,46.14
2023-01-28T12:58:36.921Z,45.87
2023-01-28T13:01:10.937Z,46.20
2023-01-28T13:03:47.216Z,45.17
2023-01-28T13:06:21.369Z,45.14
2023-01-28T13:08:53.183Z,45.27
2023-01-28T13:11:22.449Z,44.76
2023-01-28T13:13:51.457Z,44.59
2023-01-28T13:16:28.674Z,44.70
2023-01-28T13:19:10.437Z,42.95
2023-01-28T13:21:48.617Z,43.79
2023-01-28T13:24:31.839Z,43.66
2023-01-28T13:27:00.483Z,43.55
2023-01-28T13:29:33.371Z,42.27
2023-01-28T13:32:04.342Z,42.41
2023-01-28T13:34:36.777Z,42.88
2023-01-28T13:37:18.015Z,43.54
2023-01-28T13:39:52.378Z,43.09
2023-01-28T13:42:27.065Z,43.20
2023-01-28T13:44:56.408Z,43.04
2023-01-28T13:47:31.409Z,42.68
2023-01-28T13:50:03.891Z,42.52
2023-01-28T13:52:38.000Z,43.60
2023-01-28T13:55:37.174Z,42.83
2023-01-28T13:58:37.393Z,42.88
2023-01-28T14:01:31.945Z,42.88
2023-01-28T14:04:32.413Z,42.52
2023-01-28T14:07:11.503Z,42.75
2023-01-28T14:10:07.060Z,42.29
2023-01-28T14:13:16.840Z,42.74
2023-01-28T14:16:01.764Z,42.82
2023-01-28T14:18:35.097Z,43.37
2023-01-28T14:21:05.983Z,42.60
2023-01-28T14:23:35.779Z,43.06
2023-01-28T14:26:17.823Z,42.41
2023-01-28T14:28:54.900Z,42.75
2023-01-28T14:31:29.373Z,43.08
2023-01-28T14:34:06.541Z,43.08
2023-01-28T14:36:39.252Z,43.40
2023-01-28T14:39:13.775Z,43.30
2023-01-28T14:41:45.569Z,43.44
2023-01-28T14:44:26.656Z,43.61
2023-01-28T14:47:08.932Z,43.32
2023-01-28T14:49:49.187Z,43.62
2023-01-28T14:52:43.022Z,43.51
2023-01-28T14:55:28.424Z,43.01
2023-01-28T14:58:00.155Z,43.33
2023-01-28T15:00:30.603Z,43.30
2023-01-28T15:03:01.879Z,43.02
2023-01-28T15:05:32.011Z,43.00
2023-01-28T15:08:01.597Z,43.28
2023-01-28T15:10:33.092Z,43.26
2023-01-28T15:13:07.638Z,43.14
2023-01-28T15:15:38.393Z,43.64
2023-01-28T15:18:15.413Z,43.76
2023-01-28T15:20:46.487Z,43.93
2023-01-28T15:23:18.584Z,43.93
2023-01-28T15:25:47.286Z,44.00
2023-01-28T15:28:25.671Z,43.80
2023-01-28T15:30:54.556Z,43.88
2023-01-28T15:33:25.641Z,43.10
2023-01-28T15:35:56.003Z,43.65
2023-01-28T15:38:25.807Z,43.51
2023-01-28T15:40:58.475Z,43.76
2023-01-28T15:43:30.355Z,43.89
2023-01-28T15:46:00.576Z,43.86
2023-01-28T15:48:33.696Z,43.73
2023-01-28T15:51:05.564Z,44.09
2023-01-28T15:53:37.876Z,44.30
2023-01-28T15:56:11.589Z,44.41
2023-01-28T15:58:42.602Z,44.35
2023-01-28T16:01:19.965Z,44.56
2023-01-28T16:04:02.794Z,44.82
2023-01-28T16:06:36.051Z,44.61
2023-01-28T16:09:07.712Z,44.57
2023-01-28T16:11:44.949Z,44.72
2023-01-28T16:14:26.398Z,44.49
2023-01-28T16:16:56.213Z,44.97
2023-01-28T16:19:34.590Z,44.72
2023-01-28T16:22:03.878Z,45.07
2023-01-28T16:24:36.538Z,45.07
2023-01-28T16:27:07.696Z,45.08
2023-01-28T16:29:37.346Z,45.41
2023-01-28T16:32:06.087Z,45.56
2023-01-28T16:34:36.031Z,45.67
2023-01-28T16:37:10.531Z,45.67
2023-01-28T16:39:39.153Z,46.26
2023-01-28T16:42:07.620Z,46.17
2023-01-28T16:44:36.176Z,46.04
2023-01-28T16:47:06.685Z,46.22
2023-01-28T16:49:37.445Z,45.97
2023-01-28T16:52:07.364Z,46.33
2023-01-28T16:54:36.281Z,46.16
2023-01-28T16:57:04.957Z,46.55
2023-01-28T16:59:33.689Z,46.16
2023-01-28T17:02:02.368Z,46.38
2023-01-28T17:04:30.830Z,46.11
2023-01-28T17:07:02.503Z,46.79
2023-01-28T17:09:34.398Z,46.92
2023-01-28T17:12:04.589Z,46.60
2023-01-28T17:14:33.142Z,46.89
2023-01-28T17:17:01.710Z,46.46
2023-01-28T17:19:31.251Z,46.58
2023-01-28T17:22:01.148Z,46.64
2023-01-28T17:24:31.215Z,46.92
2023-01-28T17:26:59.967Z,47.28
2023-01-28T17:29:32.959Z,46.70
2023-01-28T17:32:01.686Z,47.06
2023-01-28T17:34:30.189Z,48.00
2023-01-28T17:36:58.688Z,48.03
2023-01-28T17:39:28.640Z,47.19
2023-01-28T17:41:57.188Z,46.96
2023-01-28T17:44:25.676Z,47.29
2023-01-28T17:46:54.265Z,47.83
2023-01-28T17:49:22.782Z,47.72
2023-01-28T17:51:53.406Z,47.61
2023-01-28T17:54:22.097Z,47.64
2023-01-28T17:56:52.096Z,47.86
2023-01-28T17:59:22.657Z,48.62
2023-01-28T18:01:54.916Z,48.43
2023-01-28T18:04:23.552Z,48.14
2023-01-28T18:06:52.003Z,48.33
2023-01-28T18:09:21.021Z,48.64
2023-01-28T18:11:49.639Z,49.42
2023-01-28T18:14:20.166Z,49.48
2023-01-28T18:16:48.586Z,49.48
2023-01-28T18:19:17.594Z,49.85
2023-01-28T18:21:53.092Z,50.18
2023-01-28T18:24:24.065Z,48.37
2023-01-28T18:26:55.596Z,49.05
2023-01-28T18:29:25.743Z,50.19
2023-01-28T18:31:55.740Z,50.11
2023-01-28T18:34:25.597Z,50.48
2023-01-28T18:36:54.782Z,51.31
2023-01-28T18:39:23.504Z,50.81
2023-01-28T18:41:55.002Z,51.52
2023-01-28T18:44:26.572Z,50.95
2023-01-28T18:46:55.654Z,51.51
2023-01-28T18:49:24.297Z,51.59
2023-01-28T18:51:52.874Z,51.40
2023-01-28T18:54:21.639Z,51.15
2023-01-28T18:56:50.913Z,51.85
2023-01-28T18:59:19.949Z,51.21
2023-01-28T19:01:49.988Z,51.41
2023-01-28T19:04:19.221Z,52.01
2023-01-28T19:06:49.364Z,51.92
2023-01-28T19:09:19.344Z,52.31
2023-01-28T19:11:48.482Z,52.72
2023-01-28T19:14:17.953Z,53.03
2023-01-28T19:16:46.847Z,52.85
2023-01-28T19:19:17.569Z,53.13
2023-01-28T19:21:46.336Z,53.51
2023-01-28T19:24:18.625Z,53.09
2023-01-28T19:26:47.223Z,53.65
2023-01-28T19:29:16.441Z,53.36
2023-01-28T19:31:48.981Z,53.79
2023-01-28T19:34:19.974Z,53.98
2023-01-28T19:36:48.753Z,53.62
2023-01-28T19:39:18.015Z,53.56
2023-01-28T19:41:46.694Z,53.62
2023-01-28T19:44:18.470Z,53.50
2023-01-28T19:46:46.984Z,52.97
2023-01-28T19:49:15.797Z,53.23
2023-01-28T19:51:45.790Z,52.68
2023-01-28T19:54:14.846Z,52.98
2023-01-28T19:56:43.376Z,52.26
2023-01-28T19:59:12.963Z,52.83
2023-01-28T20:01:41.530Z,52.99
2023-01-28T20:04:10.228Z,53.38
2023-01-28T20:06:38.933Z,54.00
2023-01-28T20:09:15.301Z,53.94
2023-01-28T20:11:44.063Z,54.77
2023-01-28T20:14:14.694Z,54.33
2023-01-28T20:16:43.481Z,54.50
2023-01-28T20:19:16.104Z,54.72
2023-01-28T20:21:45.559Z,54.59
2023-01-28T20:24:17.486Z,54.54
2023-01-28T20:26:46.597Z,54.48
2023-01-28T20:29:18.830Z,54.08
2023-01-28T20:32:00.908Z,54.33
2023-01-28T20:34:36.473Z,53.60
2023-01-28T20:37:06.723Z,53.51
2023-01-28T20:39:36.847Z,53.72
2023-01-28T20:42:06.461Z,53.48
2023-01-28T20:44:34.979Z,53.80
2023-01-28T20:47:03.840Z,53.40
2023-01-28T20:49:32.350Z,53.45
2023-01-28T20:52:00.832Z,53.69
2023-01-28T20:54:29.401Z,53.43
2023-01-28T20:56:59.245Z,53.57
2023-01-28T20:59:29.331Z,53.23
2023-01-28T21:01:57.767Z,53.47
2023-01-28T21:04:26.243Z,52.91
2023-01-28T21:06:54.943Z,53.20
2023-01-28T21:09:25.595Z,53.33
2023-01-28T21:11:54.131Z,50.38
2023-01-28T21:14:24.068Z,51.63
2023-01-28T21:16:53.304Z,53.27
2023-01-28T21:19:21.866Z,53.51
2023-01-28T21:21:50.279Z,52.95
2023-01-28T21:24:19.414Z,53.42
2023-01-28T21:26:47.897Z,53.87
2023-01-28T21:29:18.181Z,54.21
2023-01-28T21:31:48.158Z,54.44
2023-01-28T21:34:17.860Z,54.73
2023-01-28T21:36:46.445Z,54.47
2023-01-28T21:39:15.027Z,54.70
2023-01-28T21:41:43.556Z,54.75
2023-01-28T21:44:13.213Z,54.83
2023-01-28T21:46:41.861Z,54.81
2023-01-28T21:49:12.968Z,54.49
2023-01-28T21:51:46.393Z,55.00
2023-01-28T21:54:18.008Z,55.30
2023-01-28T21:56:47.079Z,55.46
2023-01-28T21:59:32.706Z,55.39
2023-01-28T22:02:02.862Z,53.73
2023-01-28T22:04:35.141Z,51.94
2023-01-28T22:07:04.555Z,53.18
2023-01-28T22:09:33.822Z,53.97
2023-01-28T22:12:03.745Z,54.16
2023-01-28T22:14:32.424Z,54.37
2023-01-28T22:17:01.074Z,54.68
2023-01-28T22:19:29.598Z,54.46
2023-01-28T22:21:59.420Z,55.28
2023-01-28T22:24:29.486Z,55.16
2023-01-28T22:26:58.573Z,55.23
2023-01-28T22:29:27.246Z,55.55
2023-01-28T22:31:56.368Z,55.45
2023-01-28T22:34:25.140Z,55.60
2023-01-28T22:36:53.608Z,55.47
2023-01-28T22:39:23.494Z,55.63
2023-01-28T22:41:52.064Z,55.69
2023-01-28T22:44:21.235Z,56.06
2023-01-28T22:46:50.035Z,56.29
2023-01-28T22:49:19.888Z,56.45
2023-01-28T22:51:48.361Z,57.17
2023-01-28T22:54:17.379Z,57.01
2023-01-28T22:56:48.125Z,57.72
2023-01-28T22:59:17.891Z,57.65
2023-01-28T23:01:47.077Z,57.30
2023-01-28T23:04:15.628Z,56.84
2023-01-28T23:06:44.070Z,57.21
2023-01-28T23:09:12.587Z,57.41
2023-01-28T23:11:41.135Z,57.27
2023-01-28T23:14:29.525Z,57.60
2023-01-28T23:17:27.020Z,57.98
2023-01-28T23:20:13.044Z,57.99
2023-01-28T23:22:59.250Z,58.67
2023-01-28T23:25:27.811Z,58.96
2023-01-28T23:27:56.251Z,59.33
2023-01-28T23:30:26.289Z,59.10
2023-01-28T23:32:57.758Z,58.90
2023-01-28T23:35:27.173Z,58.94
2023-01-28T23:37:56.698Z,58.13
2023-01-28T23:40:27.339Z,58.22
2023-01-28T23:42:56.756Z,58.40
2023-01-28T23:45:27.769Z,58.30
2023-01-28T23:47:56.303Z,58.19
2023-01-28T23:50:24.807Z,58.38
2023-01-28T23:52:53.373Z,57.69
2023-01-28T23:55:21.916Z,57.97
2023-01-28T23:57:50.545Z,58.40
